createdAt,value
2017-06-05T00:07:56.512Z,9.7
2017-06-05T00:18:10.408Z,10
2017-06-05T00:28:25.257Z,9.8
2017-06-05T00:38:39.220Z,9.7
2017-06-05T00:48:54.872Z,10
2017-06-05T00:59:09.628Z,9.8
2017-06-05T01:09:23.967Z,9.8
2017-06-05T01:19:38.697Z,9.5
2017-06-05T01:29:53.876Z,9.3
2017-06-05T01:40:09.146Z,9.3
2017-06-05T01:50:23.875Z,9.1
2017-06-05T02:00:37.717Z,8.9
2017-06-05T02:10:53.428Z,8.6
2017-06-05T02:21:09.124Z,8.1
2017-06-05T02:31:24.401Z,8.2
2017-06-05T02:41:39.880Z,8.1
2017-06-05T02:51:53.835Z,8.2
2017-06-05T03:02:08.966Z,7.9
2017-06-05T03:12:24.620Z,8.3
2017-06-05T03:22:39.560Z,8.4
2017-06-05T03:32:53.283Z,8.4
2017-06-05T03:43:07.473Z,8.4
2017-06-05T03:53:22.212Z,8.4
2017-06-05T04:03:37.696Z,8.5
2017-06-05T04:13:52.416Z,8.8
2017-06-05T04:24:07.109Z,9
2017-06-05T04:34:21.555Z,9
2017-06-05T04:44:35.319Z,9.4
2017-06-05T04:54:49.453Z,9.9
2017-06-05T05:05:03.520Z,10.5
2017-06-05T05:15:19.237Z,10.8
2017-06-05T05:25:34.020Z,11.1
2017-06-05T05:35:48.537Z,11.5
2017-06-05T05:46:03.283Z,12
2017-06-05T05:56:18.547Z,12.4
2017-06-05T06:06:33.133Z,13.2
2017-06-05T06:16:48.515Z,14.2
2017-06-05T06:27:03.031Z,15
2017-06-05T06:37:17.630Z,16.6
2017-06-05T06:47:31.782Z,16.2
2017-06-05T06:57:46.707Z,16.3
2017-06-05T07:08:00.567Z,16.5
2017-06-05T07:18:15.999Z,16.7
2017-06-05T07:28:31.434Z,17.4
2017-06-05T07:38:46.862Z,17.5
2017-06-05T07:49:01.886Z,17.8
2017-06-05T07:59:16.613Z,18.3
2017-06-05T08:09:30.778Z,17.8
2017-06-05T08:19:45.843Z,19.4
2017-06-05T08:29:59.852Z,19.5
2017-06-05T08:40:15.102Z,19.4
2017-06-05T08:50:29.310Z,20.2
2017-06-05T09:00:44.737Z,19.1
2017-06-05T09:10:59.138Z,20.1
2017-06-05T09:21:13.088Z,20.3
2017-06-05T09:31:27.089Z,20.1
2017-06-05T09:41:42.310Z,21
2017-06-05T09:51:57.425Z,20.9
2017-06-05T10:02:12.714Z,22.3
2017-06-05T10:12:28.125Z,21.6
2017-06-05T10:22:43.485Z,22.6
2017-06-05T10:32:59.406Z,22.9
2017-06-05T10:43:14.724Z,22.1
2017-06-05T10:53:28.805Z,22.5
2017-06-05T11:03:44.489Z,22.8
2017-06-05T11:13:59.749Z,22.5
2017-06-05T11:24:13.979Z,22.2
2017-06-05T11:34:28.731Z,22.9
2017-06-05T11:44:44.415Z,23.9
2017-06-05T11:54:59.675Z,22.1
2017-06-05T12:05:15.614Z,22.6
2017-06-05T12:15:31.295Z,22.7
2017-06-05T12:25:45.364Z,22.5
2017-06-05T12:35:59.504Z,21.1
2017-06-05T12:46:13.670Z,23.9
2017-06-05T12:56:27.963Z,22.1
2017-06-05T13:06:43.408Z,22.8
2017-06-05T13:16:58.893Z,22.5
2017-06-05T13:27:14.245Z,24.1
2017-06-05T13:37:28.294Z,23.5
2017-06-05T13:47:43.290Z,22
2017-06-05T13:57:58.931Z,21.5
2017-06-05T14:08:13.766Z,21.9
2017-06-05T14:18:29.479Z,25
2017-06-05T14:28:44.553Z,24.7
2017-06-05T14:38:59.587Z,23.5
2017-06-05T14:49:15.109Z,22.3
2017-06-05T14:59:29.491Z,23.5
2017-06-05T15:09:43.653Z,21.8
2017-06-05T15:19:58.235Z,21.6
2017-06-05T15:30:12.181Z,21.6
2017-06-05T15:40:27.952Z,21.6
2017-06-05T15:50:43.130Z,22.1
2017-06-05T16:00:58.356Z,23.1
2017-06-05T16:11:12.881Z,22.6
2017-06-05T16:21:28.643Z,23.8
2017-06-05T16:31:43.973Z,24.2
2017-06-05T16:41:59.049Z,23.8
2017-06-05T16:52:13.485Z,23.5
2017-06-05T17:02:29.366Z,23.5
2017-06-05T17:12:44.258Z,23.1
2017-06-05T17:22:58.381Z,23.1
2017-06-05T17:33:13.880Z,23.2
2017-06-05T17:43:29.569Z,22.7
2017-06-05T17:53:43.595Z,21.3
2017-06-05T18:03:58.088Z,20.8
2017-06-05T18:14:13.118Z,20.9
2017-06-05T18:24:28.296Z,20.6
2017-06-05T18:34:43.512Z,20.1
2017-06-05T18:44:57.822Z,19.6
2017-06-05T18:55:11.982Z,18.9
2017-06-05T19:05:27.358Z,18.9
2017-06-05T19:15:42.584Z,18.6
2017-06-05T19:25:57.746Z,18.1
2017-06-05T19:36:12.420Z,17.9
2017-06-05T19:46:27.887Z,17.3
2017-06-05T19:56:42.477Z,17
2017-06-05T20:06:57.400Z,16.7
2017-06-05T20:17:12.132Z,16.9
2017-06-05T20:27:27.434Z,17
2017-06-05T20:37:42.607Z,17
2017-06-05T20:47:57.548Z,16.6
2017-06-05T20:58:11.370Z,16.5
2017-06-05T21:08:25.878Z,16.5
2017-06-05T21:18:41.411Z,16.6
2017-06-05T21:28:56.080Z,16.6
2017-06-05T21:39:10.430Z,15.9
2017-06-05T21:49:25.787Z,15.5
2017-06-05T21:59:39.552Z,15.8
2017-06-05T22:09:54.974Z,15.8
2017-06-05T22:20:08.897Z,15.6
2017-06-05T22:30:22.988Z,16
2017-06-05T22:40:37.737Z,16.1
2017-06-05T22:50:52.462Z,16.1
2017-06-05T23:01:06.941Z,16
2017-06-05T23:11:21.086Z,16
2017-06-05T23:21:35.639Z,15.8
2017-06-05T23:31:50.441Z,15.8
2017-06-05T23:42:05.077Z,15.9
2017-06-05T23:52:20.133Z,15.7
